sensor_id;sensor_type;location;lat;lon;timestamp;P1;durP1;ratioP1;P2;durP2;ratioP2
31818;SDS011;18384;48.860;9.188;2023-02-28T00:00:50;4.68;;;2.90;;
31818;SDS011;18384;48.860;9.188;2023-02-28T00:03:16;6.32;;;3.03;;
31818;SDS011;18384;48.860;9.188;2023-02-28T00:08:08;9.23;;;3.42;;
31818;SDS011;18384;48.860;9.188;2023-02-28T00:10:35;4.78;;;3.05;;
31818;SDS011;18384;48.860;9.188;2023-02-28T00:13:02;6.87;;;3.42;;
31818;SDS011;18384;48.860;9.188;2023-02-28T00:15:31;15.77;;;3.20;;
31818;SDS011;18384;48.860;9.188;2023-02-28T00:17:58;7.60;;;3.50;;
31818;SDS011;18384;48.860;9.188;2023-02-28T00:22:51;15.10;;;3.03;;
31818;SDS011;18384;48.860;9.188;2023-02-28T00:25:19;7.28;;;3.67;;
31818;SDS011;18384;48.860;9.188;2023-02-28T00:27:48;9.10;;;3.90;;
31818;SDS011;18384;48.860;9.188;2023-02-28T00:32:45;6.30;;;3.47;;
31818;SDS011;18384;48.860;9.188;2023-02-28T00:35:12;5.50;;;3.30;;
31818;SDS011;18384;48.860;9.188;2023-02-28T00:37:39;7.65;;;3.22;;
31818;SDS011;18384;48.860;9.188;2023-02-28T00:42:33;10.02;;;3.22;;
31818;SDS011;18384;48.860;9.188;2023-02-28T00:45:00;7.57;;;3.50;;
31818;SDS011;18384;48.860;9.188;2023-02-28T00:47:29;4.55;;;3.00;;
31818;SDS011;18384;48.860;9.188;2023-02-28T00:49:56;9.70;;;3.40;;
31818;SDS011;18384;48.860;9.188;2023-02-28T00:52:22;6.05;;;3.20;;
31818;SDS011;18384;48.860;9.188;2023-02-28T00:54:48;13.05;;;4.12;;
31818;SDS011;18384;48.860;9.188;2023-02-28T00:57:14;7.15;;;3.67;;
31818;SDS011;18384;48.860;9.188;2023-02-28T00:59:40;9.60;;;3.95;;
31818;SDS011;18384;48.860;9.188;2023-02-28T01:02:06;6.32;;;3.60;;
31818;SDS011;18384;48.860;9.188;2023-02-28T01:04:32;9.00;;;3.45;;
31818;SDS011;18384;48.860;9.188;2023-02-28T01:06:59;7.53;;;3.50;;
31818;SDS011;18384;48.860;9.188;2023-02-28T01:09:25;12.40;;;3.90;;
31818;SDS011;18384;48.860;9.188;2023-02-28T01:11:51;7.90;;;4.03;;
31818;SDS011;18384;48.860;9.188;2023-02-28T01:14:17;6.53;;;4.15;;
31818;SDS011;18384;48.860;9.188;2023-02-28T01:16:44;19.33;;;4.00;;
31818;SDS011;18384;48.860;9.188;2023-02-28T01:19:10;8.07;;;3.80;;
31818;SDS011;18384;48.860;9.188;2023-02-28T01:21:36;6.70;;;3.60;;
31818;SDS011;18384;48.860;9.188;2023-02-28T01:24:02;7.60;;;4.12;;
31818;SDS011;18384;48.860;9.188;2023-02-28T01:26:30;5.50;;;3.45;;
31818;SDS011;18384;48.860;9.188;2023-02-28T01:28:56;8.27;;;3.67;;
31818;SDS011;18384;48.860;9.188;2023-02-28T01:31:23;6.82;;;3.97;;
31818;SDS011;18384;48.860;9.188;2023-02-28T01:36:16;7.03;;;3.55;;
31818;SDS011;18384;48.860;9.188;2023-02-28T01:38:45;5.43;;;3.25;;
31818;SDS011;18384;48.860;9.188;2023-02-28T01:41:19;7.87;;;3.55;;
31818;SDS011;18384;48.860;9.188;2023-02-28T01:43:53;6.53;;;3.50;;
31818;SDS011;18384;48.860;9.188;2023-02-28T01:46:43;7.00;;;3.67;;
31818;SDS011;18384;48.860;9.188;2023-02-28T01:49:13;5.18;;;2.87;;
31818;SDS011;18384;48.860;9.188;2023-02-28T01:51:45;7.78;;;3.75;;
31818;SDS011;18384;48.860;9.188;2023-02-28T01:54:41;9.45;;;3.65;;
31818;SDS011;18384;48.860;9.188;2023-02-28T01:59:40;11.60;;;4.57;;
31818;SDS011;18384;48.860;9.188;2023-02-28T02:02:16;6.40;;;4.07;;
31818;SDS011;18384;48.860;9.188;2023-02-28T02:04:50;9.82;;;4.00;;
31818;SDS011;18384;48.860;9.188;2023-02-28T02:07:26;7.72;;;3.72;;
31818;SDS011;18384;48.860;9.188;2023-02-28T02:10:18;6.60;;;3.90;;
31818;SDS011;18384;48.860;9.188;2023-02-28T02:12:51;7.68;;;3.60;;
31818;SDS011;18384;48.860;9.188;2023-02-28T02:15:41;10.50;;;4.20;;
31818;SDS011;18384;48.860;9.188;2023-02-28T02:18:44;7.80;;;3.80;;
31818;SDS011;18384;48.860;9.188;2023-02-28T02:26:59;7.47;;;3.80;;
31818;SDS011;18384;48.860;9.188;2023-02-28T02:30:06;7.55;;;3.67;;
31818;SDS011;18384;48.860;9.188;2023-02-28T02:38:32;6.18;;;3.30;;
31818;SDS011;18384;48.860;9.188;2023-02-28T02:42:55;7.12;;;3.70;;
31818;SDS011;18384;48.860;9.188;2023-02-28T02:46:14;11.88;;;4.15;;
31818;SDS011;18384;48.860;9.188;2023-02-28T02:49:00;7.07;;;3.67;;
31818;SDS011;18384;48.860;9.188;2023-02-28T02:51:30;9.18;;;3.78;;
31818;SDS011;18384;48.860;9.188;2023-02-28T02:54:21;9.70;;;4.12;;
31818;SDS011;18384;48.860;9.188;2023-02-28T02:57:03;6.30;;;3.90;;
31818;SDS011;18384;48.860;9.188;2023-02-28T02:59:36;6.35;;;4.00;;
31818;SDS011;18384;48.860;9.188;2023-02-28T03:02:06;7.80;;;4.03;;
31818;SDS011;18384;48.860;9.188;2023-02-28T03:04:39;9.60;;;3.95;;
31818;SDS011;18384;48.860;9.188;2023-02-28T03:07:14;10.10;;;3.90;;
31818;SDS011;18384;48.860;9.188;2023-02-28T03:09:40;7.75;;;4.40;;
31818;SDS011;18384;48.860;9.188;2023-02-28T03:12:08;8.30;;;4.03;;
31818;SDS011;18384;48.860;9.188;2023-02-28T03:14:47;8.50;;;4.55;;
31818;SDS011;18384;48.860;9.188;2023-02-28T03:17:54;10.25;;;4.80;;
31818;SDS011;18384;48.860;9.188;2023-02-28T03:24:53;6.65;;;3.75;;
31818;SDS011;18384;48.860;9.188;2023-02-28T03:27:49;11.10;;;3.55;;
31818;SDS011;18384;48.860;9.188;2023-02-28T03:31:12;8.35;;;4.43;;
31818;SDS011;18384;48.860;9.188;2023-02-28T03:33:58;6.45;;;3.85;;
31818;SDS011;18384;48.860;9.188;2023-02-28T03:36:38;8.95;;;4.40;;
31818;SDS011;18384;48.860;9.188;2023-02-28T03:39:18;10.82;;;4.37;;
31818;SDS011;18384;48.860;9.188;2023-02-28T03:41:58;5.90;;;4.27;;
31818;SDS011;18384;48.860;9.188;2023-02-28T03:44:40;7.37;;;4.20;;
31818;SDS011;18384;48.860;9.188;2023-02-28T03:47:12;8.93;;;5.00;;
31818;SDS011;18384;48.860;9.188;2023-02-28T03:50:41;8.20;;;4.18;;
31818;SDS011;18384;48.860;9.188;2023-02-28T03:53:17;7.00;;;4.18;;
31818;SDS011;18384;48.860;9.188;2023-02-28T03:55:56;10.10;;;4.50;;
31818;SDS011;18384;48.860;9.188;2023-02-28T03:58:35;6.30;;;4.03;;
31818;SDS011;18384;48.860;9.188;2023-02-28T04:01:37;8.80;;;4.62;;
31818;SDS011;18384;48.860;9.188;2023-02-28T04:04:11;8.93;;;4.43;;
31818;SDS011;18384;48.860;9.188;2023-02-28T04:06:38;12.10;;;4.37;;
31818;SDS011;18384;48.860;9.188;2023-02-28T04:09:06;9.35;;;4.28;;
31818;SDS011;18384;48.860;9.188;2023-02-28T04:11:39;11.82;;;4.87;;
31818;SDS011;18384;48.860;9.188;2023-02-28T04:14:09;7.00;;;4.35;;
31818;SDS011;18384;48.860;9.188;2023-02-28T04:16:38;6.57;;;4.15;;
31818;SDS011;18384;48.860;9.188;2023-02-28T04:19:06;7.82;;;4.40;;
31818;SDS011;18384;48.860;9.188;2023-02-28T04:21:36;8.07;;;4.43;;
31818;SDS011;18384;48.860;9.188;2023-02-28T04:24:11;8.00;;;4.65;;
31818;SDS011;18384;48.860;9.188;2023-02-28T04:26:44;7.47;;;4.85;;
31818;SDS011;18384;48.860;9.188;2023-02-28T04:29:17;7.85;;;4.22;;
31818;SDS011;18384;48.860;9.188;2023-02-28T04:31:50;7.95;;;4.57;;
31818;SDS011;18384;48.860;9.188;2023-02-28T04:34:18;12.07;;;5.12;;
31818;SDS011;18384;48.860;9.188;2023-02-28T04:36:46;10.35;;;4.80;;
31818;SDS011;18384;48.860;9.188;2023-02-28T04:39:18;8.10;;;4.65;;
31818;SDS011;18384;48.860;9.188;2023-02-28T04:41:46;10.90;;;5.70;;
31818;SDS011;18384;48.860;9.188;2023-02-28T04:44:12;10.18;;;4.72;;
31818;SDS011;18384;48.860;9.188;2023-02-28T04:46:40;7.37;;;4.97;;
31818;SDS011;18384;48.860;9.188;2023-02-28T04:49:07;9.27;;;4.93;;
31818;SDS011;18384;48.860;9.188;2023-02-28T04:51:36;8.43;;;4.72;;
31818;SDS011;18384;48.860;9.188;2023-02-28T04:54:02;10.07;;;5.95;;
31818;SDS011;18384;48.860;9.188;2023-02-28T04:58:54;14.02;;;6.40;;
31818;SDS011;18384;48.860;9.188;2023-02-28T05:01:28;12.75;;;6.20;;
31818;SDS011;18384;48.860;9.188;2023-02-28T05:03:58;11.32;;;6.32;;
31818;SDS011;18384;48.860;9.188;2023-02-28T05:06:27;9.63;;;4.95;;
31818;SDS011;18384;48.860;9.188;2023-02-28T05:08:56;17.05;;;6.30;;
31818;SDS011;18384;48.860;9.188;2023-02-28T05:11:24;13.75;;;7.20;;
31818;SDS011;18384;48.860;9.188;2023-02-28T05:14:03;13.18;;;6.55;;
31818;SDS011;18384;48.860;9.188;2023-02-28T05:16:32;9.88;;;6.18;;
31818;SDS011;18384;48.860;9.188;2023-02-28T05:21:26;9.23;;;5.55;;
31818;SDS011;18384;48.860;9.188;2023-02-28T05:24:02;19.70;;;9.90;;
31818;SDS011;18384;48.860;9.188;2023-02-28T05:26:33;11.10;;;5.85;;
31818;SDS011;18384;48.860;9.188;2023-02-28T05:29:01;8.88;;;5.05;;
31818;SDS011;18384;48.860;9.188;2023-02-28T05:31:27;15.85;;;6.97;;
31818;SDS011;18384;48.860;9.188;2023-02-28T05:33:54;9.18;;;5.30;;
31818;SDS011;18384;48.860;9.188;2023-02-28T05:36:20;8.70;;;6.15;;
31818;SDS011;18384;48.860;9.188;2023-02-28T05:38:50;9.45;;;5.55;;
31818;SDS011;18384;48.860;9.188;2023-02-28T05:41:17;11.25;;;6.20;;
31818;SDS011;18384;48.860;9.188;2023-02-28T05:43:45;9.85;;;5.37;;
31818;SDS011;18384;48.860;9.188;2023-02-28T05:46:11;8.00;;;5.45;;
31818;SDS011;18384;48.860;9.188;2023-02-28T05:48:39;8.90;;;5.87;;
31818;SDS011;18384;48.860;9.188;2023-02-28T05:51:08;11.00;;;6.00;;
31818;SDS011;18384;48.860;9.188;2023-02-28T05:53:35;13.75;;;6.25;;
31818;SDS011;18384;48.860;9.188;2023-02-28T05:56:01;10.82;;;5.87;;
31818;SDS011;18384;48.860;9.188;2023-02-28T05:58:28;11.25;;;5.82;;
31818;SDS011;18384;48.860;9.188;2023-02-28T06:00:59;8.18;;;5.22;;
31818;SDS011;18384;48.860;9.188;2023-02-28T06:03:44;11.52;;;5.62;;
31818;SDS011;18384;48.860;9.188;2023-02-28T06:06:10;11.15;;;5.93;;
31818;SDS011;18384;48.860;9.188;2023-02-28T06:08:36;13.60;;;5.93;;
31818;SDS011;18384;48.860;9.188;2023-02-28T06:11:03;12.20;;;5.47;;
31818;SDS011;18384;48.860;9.188;2023-02-28T06:13:29;10.07;;;5.53;;
31818;SDS011;18384;48.860;9.188;2023-02-28T06:15:55;13.77;;;6.07;;
31818;SDS011;18384;48.860;9.188;2023-02-28T06:18:22;10.65;;;6.55;;
31818;SDS011;18384;48.860;9.188;2023-02-28T06:20:54;9.73;;;5.97;;
31818;SDS011;18384;48.860;9.188;2023-02-28T06:23:21;10.63;;;6.10;;
31818;SDS011;18384;48.860;9.188;2023-02-28T06:25:47;12.77;;;6.28;;
31818;SDS011;18384;48.860;9.188;2023-02-28T06:28:14;9.75;;;6.18;;
31818;SDS011;18384;48.860;9.188;2023-02-28T06:30:41;15.52;;;6.05;;
31818;SDS011;18384;48.860;9.188;2023-02-28T06:33:07;14.57;;;6.43;;
31818;SDS011;18384;48.860;9.188;2023-02-28T06:35:33;11.12;;;6.50;;
31818;SDS011;18384;48.860;9.188;2023-02-28T06:37:59;12.65;;;6.37;;
31818;SDS011;18384;48.860;9.188;2023-02-28T06:40:25;9.23;;;5.65;;
31818;SDS011;18384;48.860;9.188;2023-02-28T06:42:51;11.07;;;6.10;;
31818;SDS011;18384;48.860;9.188;2023-02-28T06:47:44;13.35;;;5.95;;
31818;SDS011;18384;48.860;9.188;2023-02-28T06:50:11;11.80;;;5.75;;
31818;SDS011;18384;48.860;9.188;2023-02-28T06:52:38;12.00;;;6.20;;
31818;SDS011;18384;48.860;9.188;2023-02-28T06:55:04;10.05;;;5.57;;
31818;SDS011;18384;48.860;9.188;2023-02-28T06:57:32;10.32;;;5.62;;
31818;SDS011;18384;48.860;9.188;2023-02-28T07:00:00;11.10;;;6.70;;
31818;SDS011;18384;48.860;9.188;2023-02-28T07:02:32;10.10;;;6.50;;
31818;SDS011;18384;48.860;9.188;2023-02-28T07:05:00;8.77;;;5.57;;
31818;SDS011;18384;48.860;9.188;2023-02-28T07:07:26;13.20;;;6.78;;
31818;SDS011;18384;48.860;9.188;2023-02-28T07:09:52;10.02;;;5.68;;
31818;SDS011;18384;48.860;9.188;2023-02-28T07:12:18;15.95;;;6.85;;
31818;SDS011;18384;48.860;9.188;2023-02-28T07:14:44;8.50;;;5.97;;
31818;SDS011;18384;48.860;9.188;2023-02-28T07:17:10;9.55;;;6.07;;
31818;SDS011;18384;48.860;9.188;2023-02-28T07:19:38;10.75;;;6.45;;
31818;SDS011;18384;48.860;9.188;2023-02-28T07:22:05;12.37;;;6.10;;
31818;SDS011;18384;48.860;9.188;2023-02-28T07:24:32;11.60;;;6.60;;
31818;SDS011;18384;48.860;9.188;2023-02-28T07:29:24;11.68;;;6.75;;
31818;SDS011;18384;48.860;9.188;2023-02-28T07:31:50;10.93;;;6.28;;
31818;SDS011;18384;48.860;9.188;2023-02-28T07:34:18;12.10;;;6.35;;
31818;SDS011;18384;48.860;9.188;2023-02-28T07:36:45;10.30;;;6.60;;
31818;SDS011;18384;48.860;9.188;2023-02-28T07:39:11;14.18;;;6.70;;
31818;SDS011;18384;48.860;9.188;2023-02-28T07:41:37;12.77;;;6.25;;
31818;SDS011;18384;48.860;9.188;2023-02-28T07:44:11;14.65;;;6.82;;
31818;SDS011;18384;48.860;9.188;2023-02-28T07:46:37;10.38;;;6.75;;
31818;SDS011;18384;48.860;9.188;2023-02-28T07:49:04;13.93;;;7.20;;
31818;SDS011;18384;48.860;9.188;2023-02-28T07:51:31;10.13;;;6.57;;
31818;SDS011;18384;48.860;9.188;2023-02-28T07:53:57;13.70;;;7.65;;
31818;SDS011;18384;48.860;9.188;2023-02-28T07:56:23;12.98;;;7.82;;
31818;SDS011;18384;48.860;9.188;2023-02-28T07:58:50;13.10;;;7.40;;
31818;SDS011;18384;48.860;9.188;2023-02-28T08:01:16;12.57;;;7.00;;
31818;SDS011;18384;48.860;9.188;2023-02-28T08:03:43;15.65;;;8.48;;
31818;SDS011;18384;48.860;9.188;2023-02-28T08:06:15;15.98;;;7.62;;
31818;SDS011;18384;48.860;9.188;2023-02-28T08:08:47;14.05;;;7.00;;
31818;SDS011;18384;48.860;9.188;2023-02-28T08:11:13;16.27;;;7.85;;
31818;SDS011;18384;48.860;9.188;2023-02-28T08:13:41;11.93;;;6.80;;
31818;SDS011;18384;48.860;9.188;2023-02-28T08:16:09;15.45;;;7.75;;
31818;SDS011;18384;48.860;9.188;2023-02-28T08:18:36;13.15;;;7.32;;
31818;SDS011;18384;48.860;9.188;2023-02-28T08:21:06;14.05;;;6.65;;
31818;SDS011;18384;48.860;9.188;2023-02-28T08:23:34;15.18;;;6.78;;
31818;SDS011;18384;48.860;9.188;2023-02-28T08:26:00;12.40;;;7.43;;
31818;SDS011;18384;48.860;9.188;2023-02-28T08:28:27;13.77;;;7.80;;
31818;SDS011;18384;48.860;9.188;2023-02-28T08:30:53;17.05;;;8.32;;
31818;SDS011;18384;48.860;9.188;2023-02-28T08:33:20;17.30;;;7.43;;
31818;SDS011;18384;48.860;9.188;2023-02-28T08:35:47;10.98;;;7.03;;
31818;SDS011;18384;48.860;9.188;2023-02-28T08:38:14;14.15;;;7.10;;
31818;SDS011;18384;48.860;9.188;2023-02-28T08:40:40;14.65;;;7.20;;
31818;SDS011;18384;48.860;9.188;2023-02-28T08:43:06;12.60;;;7.22;;
31818;SDS011;18384;48.860;9.188;2023-02-28T08:45:32;13.40;;;7.87;;
31818;SDS011;18384;48.860;9.188;2023-02-28T08:47:58;15.57;;;8.02;;
31818;SDS011;18384;48.860;9.188;2023-02-28T08:50:24;13.88;;;8.68;;
31818;SDS011;18384;48.860;9.188;2023-02-28T08:52:51;13.43;;;8.38;;
31818;SDS011;18384;48.860;9.188;2023-02-28T08:55:17;14.23;;;7.87;;
31818;SDS011;18384;48.860;9.188;2023-02-28T08:57:43;19.60;;;8.23;;
31818;SDS011;18384;48.860;9.188;2023-02-28T09:00:09;14.85;;;8.23;;
31818;SDS011;18384;48.860;9.188;2023-02-28T09:02:38;14.95;;;7.25;;
31818;SDS011;18384;48.860;9.188;2023-02-28T09:05:05;12.05;;;7.10;;
31818;SDS011;18384;48.860;9.188;2023-02-28T09:07:33;15.20;;;8.00;;
31818;SDS011;18384;48.860;9.188;2023-02-28T09:09:59;12.82;;;8.15;;
31818;SDS011;18384;48.860;9.188;2023-02-28T09:12:25;13.55;;;7.93;;
31818;SDS011;18384;48.860;9.188;2023-02-28T09:14:57;12.85;;;7.60;;
31818;SDS011;18384;48.860;9.188;2023-02-28T09:17:23;12.05;;;6.95;;
31818;SDS011;18384;48.860;9.188;2023-02-28T09:19:49;18.20;;;8.13;;
31818;SDS011;18384;48.860;9.188;2023-02-28T09:22:15;14.98;;;7.90;;
31818;SDS011;18384;48.860;9.188;2023-02-28T09:24:41;12.10;;;7.68;;
31818;SDS011;18384;48.860;9.188;2023-02-28T09:27:09;14.45;;;7.72;;
31818;SDS011;18384;48.860;9.188;2023-02-28T09:29:35;13.60;;;7.43;;
31818;SDS011;18384;48.860;9.188;2023-02-28T09:32:02;12.20;;;8.32;;
31818;SDS011;18384;48.860;9.188;2023-02-28T09:34:30;12.23;;;7.95;;
31818;SDS011;18384;48.860;9.188;2023-02-28T09:36:56;18.15;;;8.25;;
31818;SDS011;18384;48.860;9.188;2023-02-28T09:39:23;13.20;;;7.75;;
31818;SDS011;18384;48.860;9.188;2023-02-28T09:41:51;15.30;;;7.78;;
31818;SDS011;18384;48.860;9.188;2023-02-28T09:44:22;14.98;;;8.07;;
31818;SDS011;18384;48.860;9.188;2023-02-28T09:46:58;13.48;;;7.82;;
31818;SDS011;18384;48.860;9.188;2023-02-28T09:49:43;17.67;;;8.80;;
31818;SDS011;18384;48.860;9.188;2023-02-28T09:52:17;15.23;;;8.57;;
31818;SDS011;18384;48.860;9.188;2023-02-28T09:54:47;14.87;;;8.63;;
31818;SDS011;18384;48.860;9.188;2023-02-28T09:57:33;14.55;;;8.40;;
31818;SDS011;18384;48.860;9.188;2023-02-28T10:00:18;18.00;;;7.68;;
31818;SDS011;18384;48.860;9.188;2023-02-28T10:08:57;13.45;;;7.50;;
31818;SDS011;18384;48.860;9.188;2023-02-28T10:11:34;13.55;;;7.72;;
31818;SDS011;18384;48.860;9.188;2023-02-28T10:14:11;13.02;;;8.23;;
31818;SDS011;18384;48.860;9.188;2023-02-28T10:16:43;16.35;;;8.43;;
31818;SDS011;18384;48.860;9.188;2023-02-28T10:20:02;14.13;;;7.87;;
31818;SDS011;18384;48.860;9.188;2023-02-28T10:22:57;14.98;;;7.50;;
31818;SDS011;18384;48.860;9.188;2023-02-28T10:25:45;12.57;;;7.87;;
31818;SDS011;18384;48.860;9.188;2023-02-28T10:28:19;14.85;;;8.15;;
31818;SDS011;18384;48.860;9.188;2023-02-28T10:30:50;13.38;;;8.35;;
31818;SDS011;18384;48.860;9.188;2023-02-28T10:33:22;12.60;;;7.70;;
31818;SDS011;18384;48.860;9.188;2023-02-28T10:35:54;14.70;;;7.83;;
31818;SDS011;18384;48.860;9.188;2023-02-28T10:38:38;12.82;;;7.97;;
31818;SDS011;18384;48.860;9.188;2023-02-28T10:41:07;16.77;;;7.57;;
31818;SDS011;18384;48.860;9.188;2023-02-28T10:43:36;15.63;;;7.93;;
31818;SDS011;18384;48.860;9.188;2023-02-28T10:46:14;15.18;;;8.07;;
31818;SDS011;18384;48.860;9.188;2023-02-28T10:49:06;14.97;;;8.57;;
31818;SDS011;18384;48.860;9.188;2023-02-28T10:51:45;14.32;;;7.93;;
31818;SDS011;18384;48.860;9.188;2023-02-28T10:54:17;12.80;;;8.18;;
31818;SDS011;18384;48.860;9.188;2023-02-28T10:59:49;13.62;;;7.50;;
31818;SDS011;18384;48.860;9.188;2023-02-28T11:02:33;14.85;;;8.18;;
31818;SDS011;18384;48.860;9.188;2023-02-28T11:05:02;13.88;;;7.50;;
31818;SDS011;18384;48.860;9.188;2023-02-28T11:07:56;17.27;;;8.52;;
31818;SDS011;18384;48.860;9.188;2023-02-28T11:10:38;14.55;;;8.27;;
31818;SDS011;18384;48.860;9.188;2023-02-28T11:13:04;13.73;;;7.90;;
31818;SDS011;18384;48.860;9.188;2023-02-28T11:15:34;12.88;;;7.82;;
31818;SDS011;18384;48.860;9.188;2023-02-28T11:18:02;13.20;;;7.93;;
31818;SDS011;18384;48.860;9.188;2023-02-28T11:23:19;13.90;;;7.90;;
31818;SDS011;18384;48.860;9.188;2023-02-28T11:25:47;16.40;;;8.40;;
31818;SDS011;18384;48.860;9.188;2023-02-28T11:28:29;13.62;;;7.87;;
31818;SDS011;18384;48.860;9.188;2023-02-28T11:31:03;17.95;;;8.98;;
31818;SDS011;18384;48.860;9.188;2023-02-28T11:33:53;18.50;;;8.45;;
31818;SDS011;18384;48.860;9.188;2023-02-28T11:36:25;14.40;;;8.63;;
31818;SDS011;18384;48.860;9.188;2023-02-28T11:38:56;11.27;;;7.20;;
31818;SDS011;18384;48.860;9.188;2023-02-28T11:42:23;13.62;;;8.20;;
31818;SDS011;18384;48.860;9.188;2023-02-28T11:45:36;14.50;;;8.20;;
31818;SDS011;18384;48.860;9.188;2023-02-28T11:50:07;13.77;;;7.97;;
31818;SDS011;18384;48.860;9.188;2023-02-28T12:00:16;14.35;;;7.90;;
31818;SDS011;18384;48.860;9.188;2023-02-28T12:14:33;12.37;;;7.37;;
31818;SDS011;18384;48.860;9.188;2023-02-28T12:29:37;13.07;;;7.55;;
31818;SDS011;18384;48.860;9.188;2023-02-28T12:32:58;13.32;;;7.93;;
31818;SDS011;18384;48.860;9.188;2023-02-28T12:35:37;14.63;;;8.43;;
31818;SDS011;18384;48.860;9.188;2023-02-28T12:38:40;12.63;;;8.05;;
31818;SDS011;18384;48.860;9.188;2023-02-28T12:41:14;18.58;;;7.80;;
31818;SDS011;18384;48.860;9.188;2023-02-28T12:43:51;12.15;;;7.47;;
31818;SDS011;18384;48.860;9.188;2023-02-28T12:46:30;13.02;;;7.55;;
31818;SDS011;18384;48.860;9.188;2023-02-28T12:49:08;13.85;;;7.95;;
31818;SDS011;18384;48.860;9.188;2023-02-28T12:53:19;11.48;;;7.43;;
31818;SDS011;18384;48.860;9.188;2023-02-28T12:56:17;15.15;;;7.72;;
31818;SDS011;18384;48.860;9.188;2023-02-28T12:59:11;17.58;;;7.93;;
31818;SDS011;18384;48.860;9.188;2023-02-28T13:02:09;12.07;;;7.03;;
31818;SDS011;18384;48.860;9.188;2023-02-28T13:05:25;14.00;;;7.43;;
31818;SDS011;18384;48.860;9.188;2023-02-28T13:12:23;15.05;;;7.15;;
31818;SDS011;18384;48.860;9.188;2023-02-28T13:14:49;13.43;;;7.57;;
31818;SDS011;18384;48.860;9.188;2023-02-28T13:17:38;11.68;;;7.37;;
31818;SDS011;18384;48.860;9.188;2023-02-28T13:20:14;12.52;;;6.90;;
31818;SDS011;18384;48.860;9.188;2023-02-28T13:22:52;15.43;;;8.77;;
31818;SDS011;18384;48.860;9.188;2023-02-28T13:30:00;14.13;;;7.97;;
31818;SDS011;18384;48.860;9.188;2023-02-28T13:33:33;11.40;;;7.47;;
31818;SDS011;18384;48.860;9.188;2023-02-28T13:40:37;11.48;;;7.07;;
31818;SDS011;18384;48.860;9.188;2023-02-28T13:43:06;14.85;;;7.57;;
31818;SDS011;18384;48.860;9.188;2023-02-28T13:45:34;13.70;;;7.47;;
31818;SDS011;18384;48.860;9.188;2023-02-28T13:48:19;10.25;;;6.95;;
31818;SDS011;18384;48.860;9.188;2023-02-28T13:50:51;13.95;;;7.45;;
31818;SDS011;18384;48.860;9.188;2023-02-28T13:53:39;11.55;;;7.30;;
31818;SDS011;18384;48.860;9.188;2023-02-28T13:56:29;18.75;;;7.40;;
31818;SDS011;18384;48.860;9.188;2023-02-28T13:59:26;15.65;;;8.25;;
31818;SDS011;18384;48.860;9.188;2023-02-28T14:09:46;12.75;;;7.50;;
31818;SDS011;18384;48.860;9.188;2023-02-28T14:15:44;12.13;;;7.87;;
31818;SDS011;18384;48.860;9.188;2023-02-28T14:18:25;14.27;;;7.85;;
31818;SDS011;18384;48.860;9.188;2023-02-28T14:21:24;13.95;;;7.12;;
31818;SDS011;18384;48.860;9.188;2023-02-28T14:34:53;15.77;;;7.75;;
31818;SDS011;18384;48.860;9.188;2023-02-28T14:37:46;11.12;;;7.28;;
31818;SDS011;18384;48.860;9.188;2023-02-28T14:40:21;12.57;;;7.55;;
31818;SDS011;18384;48.860;9.188;2023-02-28T14:43:01;13.73;;;7.28;;
31818;SDS011;18384;48.860;9.188;2023-02-28T14:45:52;12.30;;;7.93;;
31818;SDS011;18384;48.860;9.188;2023-02-28T14:48:23;14.02;;;7.78;;
31818;SDS011;18384;48.860;9.188;2023-02-28T14:50:53;14.15;;;7.05;;
31818;SDS011;18384;48.860;9.188;2023-02-28T14:53:23;13.07;;;7.53;;
31818;SDS011;18384;48.860;9.188;2023-02-28T14:55:54;13.55;;;7.60;;
31818;SDS011;18384;48.860;9.188;2023-02-28T14:58:22;13.62;;;7.50;;
31818;SDS011;18384;48.860;9.188;2023-02-28T15:00:57;11.82;;;7.12;;
31818;SDS011;18384;48.860;9.188;2023-02-28T15:03:32;14.68;;;8.00;;
31818;SDS011;18384;48.860;9.188;2023-02-28T15:06:02;11.88;;;8.10;;
31818;SDS011;18384;48.860;9.188;2023-02-28T15:08:48;16.98;;;8.63;;
31818;SDS011;18384;48.860;9.188;2023-02-28T15:11:35;17.85;;;8.18;;
31818;SDS011;18384;48.860;9.188;2023-02-28T15:14:02;14.15;;;8.35;;
31818;SDS011;18384;48.860;9.188;2023-02-28T15:16:36;13.05;;;8.48;;
31818;SDS011;18384;48.860;9.188;2023-02-28T15:19:17;13.93;;;8.52;;
31818;SDS011;18384;48.860;9.188;2023-02-28T15:21:59;10.77;;;7.45;;
31818;SDS011;18384;48.860;9.188;2023-02-28T15:24:43;12.32;;;8.02;;
31818;SDS011;18384;48.860;9.188;2023-02-28T15:27:19;10.43;;;7.12;;
31818;SDS011;18384;48.860;9.188;2023-02-28T15:29:50;12.73;;;7.57;;
31818;SDS011;18384;48.860;9.188;2023-02-28T15:32:26;14.95;;;8.05;;
31818;SDS011;18384;48.860;9.188;2023-02-28T15:34:58;10.98;;;7.47;;
31818;SDS011;18384;48.860;9.188;2023-02-28T15:37:57;22.37;;;8.65;;
31818;SDS011;18384;48.860;9.188;2023-02-28T15:40:43;11.60;;;7.67;;
31818;SDS011;18384;48.860;9.188;2023-02-28T15:43:29;12.65;;;8.00;;
31818;SDS011;18384;48.860;9.188;2023-02-28T15:45:58;12.95;;;8.10;;
31818;SDS011;18384;48.860;9.188;2023-02-28T15:48:43;21.00;;;8.57;;
31818;SDS011;18384;48.860;9.188;2023-02-28T15:51:22;16.52;;;8.63;;
31818;SDS011;18384;48.860;9.188;2023-02-28T15:54:00;12.90;;;7.55;;
31818;SDS011;18384;48.860;9.188;2023-02-28T15:56:46;15.20;;;8.27;;
31818;SDS011;18384;48.860;9.188;2023-02-28T15:59:23;13.43;;;8.52;;
31818;SDS011;18384;48.860;9.188;2023-02-28T16:02:04;15.30;;;8.02;;
31818;SDS011;18384;48.860;9.188;2023-02-28T16:12:14;12.23;;;7.57;;
31818;SDS011;18384;48.860;9.188;2023-02-28T16:14:40;12.82;;;8.25;;
31818;SDS011;18384;48.860;9.188;2023-02-28T16:17:13;13.68;;;8.25;;
31818;SDS011;18384;48.860;9.188;2023-02-28T16:19:53;14.68;;;7.75;;
31818;SDS011;18384;48.860;9.188;2023-02-28T16:22:20;15.32;;;7.72;;
31818;SDS011;18384;48.860;9.188;2023-02-28T16:27:17;12.05;;;8.63;;
31818;SDS011;18384;48.860;9.188;2023-02-28T16:29:47;19.35;;;8.77;;
31818;SDS011;18384;48.860;9.188;2023-02-28T16:32:15;12.35;;;8.45;;
31818;SDS011;18384;48.860;9.188;2023-02-28T16:34:42;18.98;;;8.57;;
31818;SDS011;18384;48.860;9.188;2023-02-28T16:37:14;15.98;;;8.68;;
31818;SDS011;18384;48.860;9.188;2023-02-28T16:39:43;14.23;;;7.90;;
31818;SDS011;18384;48.860;9.188;2023-02-28T16:42:15;16.23;;;8.45;;
31818;SDS011;18384;48.860;9.188;2023-02-28T16:44:51;13.68;;;8.20;;
31818;SDS011;18384;48.860;9.188;2023-02-28T16:47:18;19.45;;;9.15;;
31818;SDS011;18384;48.860;9.188;2023-02-28T16:49:45;20.37;;;9.57;;
31818;SDS011;18384;48.860;9.188;2023-02-28T16:52:14;18.15;;;9.63;;
31818;SDS011;18384;48.860;9.188;2023-02-28T16:54:40;19.80;;;10.77;;
31818;SDS011;18384;48.860;9.188;2023-02-28T16:57:13;14.18;;;9.32;;
31818;SDS011;18384;48.860;9.188;2023-02-28T16:59:46;17.40;;;11.45;;
31818;SDS011;18384;48.860;9.188;2023-02-28T17:02:14;26.15;;;11.00;;
31818;SDS011;18384;48.860;9.188;2023-02-28T17:04:44;18.15;;;10.00;;
31818;SDS011;18384;48.860;9.188;2023-02-28T17:07:12;21.17;;;10.52;;
31818;SDS011;18384;48.860;9.188;2023-02-28T17:09:42;18.90;;;11.25;;
31818;SDS011;18384;48.860;9.188;2023-02-28T17:12:09;17.35;;;10.20;;
31818;SDS011;18384;48.860;9.188;2023-02-28T17:14:36;17.20;;;9.77;;
31818;SDS011;18384;48.860;9.188;2023-02-28T17:17:05;23.33;;;10.77;;
31818;SDS011;18384;48.860;9.188;2023-02-28T17:19:46;21.77;;;10.57;;
31818;SDS011;18384;48.860;9.188;2023-02-28T17:22:29;21.12;;;10.60;;
31818;SDS011;18384;48.860;9.188;2023-02-28T17:24:55;16.00;;;10.25;;
31818;SDS011;18384;48.860;9.188;2023-02-28T17:27:22;21.70;;;10.77;;
31818;SDS011;18384;48.860;9.188;2023-02-28T17:29:48;16.98;;;10.60;;
31818;SDS011;18384;48.860;9.188;2023-02-28T17:32:14;16.70;;;10.82;;